createdAt,value
2022-07-25T00:01:50.348Z,202.80
2022-07-25T00:04:17.750Z,203.95
2022-07-25T00:06:45.796Z,202.70
2022-07-25T00:09:12.662Z,201.18
2022-07-25T00:11:39.374Z,200.52
2022-07-25T00:14:06.983Z,195.77
2022-07-25T00:16:34.320Z,199.95
2022-07-25T00:19:01.279Z,198.43
2022-07-25T00:21:28.016Z,196.35
2022-07-25T00:23:54.701Z,196.82
2022-07-25T00:26:21.337Z,200.33
2022-07-25T00:28:48.147Z,201.15
2022-07-25T00:31:14.927Z,201.10
2022-07-25T00:33:41.619Z,202.88
2022-07-25T00:36:09.371Z,204.07
2022-07-25T00:38:36.217Z,196.73
2022-07-25T00:41:04.046Z,199.82
2022-07-25T00:43:30.879Z,198.50
2022-07-25T00:45:58.773Z,203.57
2022-07-25T00:48:27.351Z,201.85
2022-07-25T00:50:54.404Z,208.07
2022-07-25T00:53:21.567Z,204.95
2022-07-25T00:55:48.378Z,204.43
2022-07-25T00:58:15.049Z,203.32
2022-07-25T01:00:41.888Z,204.30
2022-07-25T01:03:08.579Z,203.20
2022-07-25T01:05:35.251Z,204.85
2022-07-25T01:08:02.780Z,209.65
2022-07-25T01:10:32.476Z,206.67
2022-07-25T01:12:59.184Z,203.77
2022-07-25T01:15:26.344Z,202.88
2022-07-25T01:17:53.238Z,203.13
2022-07-25T01:20:21.724Z,203.02
2022-07-25T01:22:49.177Z,205.55
2022-07-25T01:25:16.620Z,204.13
2022-07-25T01:27:43.747Z,203.35
2022-07-25T01:30:13.024Z,204.02
2022-07-25T01:32:40.119Z,199.70
2022-07-25T01:35:08.459Z,204.77
2022-07-25T01:37:35.688Z,202.07
2022-07-25T01:40:03.772Z,203.18
2022-07-25T01:42:30.486Z,196.73
2022-07-25T01:44:57.943Z,195.50
2022-07-25T01:47:24.675Z,199.00
2022-07-25T01:49:51.373Z,194.90
2022-07-25T01:52:18.515Z,200.48
2022-07-25T01:54:45.268Z,202.85
2022-07-25T01:57:11.956Z,198.75
2022-07-25T01:59:40.652Z,200.10
2022-07-25T02:02:09.155Z,193.30
2022-07-25T02:04:36.681Z,199.25
2022-07-25T02:07:04.366Z,200.00
2022-07-25T02:09:32.930Z,197.47
2022-07-25T02:11:59.663Z,189.88
2022-07-25T02:14:26.506Z,193.23
2022-07-25T02:16:53.874Z,194.13
2022-07-25T02:19:24.417Z,191.20
2022-07-25T02:21:51.273Z,190.27
2022-07-25T02:24:17.941Z,190.07
2022-07-25T02:26:44.584Z,190.88
2022-07-25T02:29:11.320Z,192.40
2022-07-25T02:31:37.932Z,194.50
2022-07-25T02:34:05.149Z,192.65
2022-07-25T02:36:32.090Z,197.35
2022-07-25T02:38:58.757Z,195.80
2022-07-25T02:41:25.424Z,191.63
2022-07-25T02:43:52.074Z,189.18
2022-07-25T02:46:18.829Z,189.63
2022-07-25T02:48:45.737Z,193.18
2022-07-25T02:51:12.525Z,186.07
2022-07-25T02:56:29.784Z,186.77
2022-07-25T02:58:57.350Z,181.93
2022-07-25T03:01:24.240Z,186.85
2022-07-25T03:03:51.042Z,185.98
2022-07-25T03:06:18.140Z,184.60
2022-07-25T03:08:44.771Z,184.25
2022-07-25T03:11:12.654Z,187.48
2022-07-25T03:13:39.343Z,182.63
2022-07-25T03:16:07.287Z,187.07
2022-07-25T03:18:34.113Z,187.97
2022-07-25T03:21:00.862Z,188.02
2022-07-25T03:23:28.335Z,182.30
2022-07-25T03:25:55.802Z,177.35
2022-07-25T03:28:23.222Z,179.35
2022-07-25T03:30:49.985Z,176.18
2022-07-25T03:33:16.634Z,172.77
2022-07-25T03:35:45.294Z,170.33
2022-07-25T03:38:11.944Z,170.75
2022-07-25T03:40:38.638Z,172.05
2022-07-25T03:43:05.574Z,165.70
2022-07-25T03:45:32.525Z,167.98
2022-07-25T03:47:59.264Z,164.77
2022-07-25T03:50:25.994Z,168.77
2022-07-25T03:52:52.597Z,168.13
2022-07-25T03:55:19.227Z,172.50
2022-07-25T03:57:45.876Z,171.75
2022-07-25T04:00:12.867Z,153.10
2022-07-25T04:02:39.982Z,158.55
2022-07-25T04:05:07.905Z,156.13
2022-07-25T04:07:34.963Z,158.70
2022-07-25T04:10:02.047Z,154.70
2022-07-25T04:12:28.817Z,155.77
2022-07-25T04:14:55.426Z,161.05
2022-07-25T04:17:22.230Z,160.23
2022-07-25T04:19:52.521Z,159.90
2022-07-25T04:22:19.504Z,156.63
2022-07-25T04:24:46.128Z,155.93
2022-07-25T04:27:12.824Z,153.57
2022-07-25T04:29:39.620Z,150.55
2022-07-25T04:32:06.618Z,143.95
2022-07-25T04:34:33.291Z,142.00
2022-07-25T04:37:00.085Z,132.13
2022-07-25T04:39:26.758Z,129.02
2022-07-25T04:41:53.360Z,123.88
2022-07-25T04:44:19.978Z,120.15
2022-07-25T04:46:46.582Z,115.57
2022-07-25T04:49:13.455Z,116.03
2022-07-25T04:51:40.210Z,114.60
2022-07-25T04:54:07.219Z,107.72
2022-07-25T04:56:33.977Z,99.25
2022-07-25T04:59:06.158Z,86.00
2022-07-25T05:01:34.042Z,88.20
2022-07-25T05:04:00.740Z,77.63
2022-07-25T05:06:27.373Z,65.07
2022-07-25T05:08:54.090Z,57.05
2022-07-25T05:11:20.811Z,50.37
2022-07-25T05:13:47.511Z,55.63
2022-07-25T05:16:14.442Z,54.83
2022-07-25T05:18:41.135Z,58.40
2022-07-25T05:21:12.666Z,48.72
2022-07-25T05:23:39.663Z,53.08
2022-07-25T05:26:06.323Z,57.15
2022-07-25T05:28:33.050Z,54.25
2022-07-25T05:30:59.689Z,59.03
2022-07-25T05:33:26.699Z,48.70
2022-07-25T05:35:53.538Z,52.97
2022-07-25T05:38:20.503Z,45.55
2022-07-25T05:40:48.071Z,29.90
2022-07-25T05:43:14.869Z,29.35
2022-07-25T05:45:41.563Z,23.53
2022-07-25T05:48:08.321Z,15.73
2022-07-25T05:50:36.951Z,12.32
2022-07-25T05:53:03.563Z,7.25
2022-07-25T05:55:30.120Z,7.70
2022-07-25T05:57:59.633Z,6.93
2022-07-25T06:00:29.401Z,7.40
2022-07-25T06:02:59.697Z,8.83
2022-07-25T06:05:26.623Z,5.90
2022-07-25T06:07:53.272Z,8.55
2022-07-25T06:10:20.483Z,7.95
2022-07-25T06:12:51.427Z,8.25
2022-07-25T06:15:23.123Z,7.22
2022-07-25T06:17:53.839Z,10.20
2022-07-25T06:20:20.833Z,7.90
2022-07-25T06:22:47.572Z,6.60
2022-07-25T06:25:15.020Z,6.75
2022-07-25T06:27:42.476Z,7.10
2022-07-25T06:30:19.146Z,7.60
2022-07-25T06:32:46.166Z,9.57
2022-07-25T06:35:12.781Z,4.93
2022-07-25T06:37:39.931Z,3.83
2022-07-25T06:40:08.145Z,5.93
2022-07-25T06:42:45.734Z,5.75
2022-07-25T06:45:13.865Z,4.40
2022-07-25T06:47:41.981Z,4.53
2022-07-25T06:50:12.023Z,6.55
2022-07-25T06:52:39.474Z,3.72
2022-07-25T06:55:07.840Z,3.03
2022-07-25T06:57:34.494Z,4.03
2022-07-25T07:00:01.313Z,3.63
2022-07-25T07:02:28.107Z,3.28
2022-07-25T07:04:54.728Z,3.80
2022-07-25T07:07:21.342Z,4.18
2022-07-25T07:09:47.987Z,4.35
2022-07-25T07:12:14.666Z,3.72
2022-07-25T07:14:41.944Z,3.77
2022-07-25T07:17:08.659Z,4.50
2022-07-25T07:19:35.324Z,2.72
2022-07-25T07:22:01.926Z,5.15
2022-07-25T07:24:28.903Z,4.00
2022-07-25T07:26:55.717Z,2.67
2022-07-25T07:29:22.368Z,3.38
2022-07-25T07:31:49.097Z,5.77
2022-07-25T07:34:16.481Z,6.10
2022-07-25T07:36:45.778Z,4.72
2022-07-25T07:39:12.449Z,3.22
2022-07-25T07:41:39.064Z,2.50
2022-07-25T07:44:05.962Z,3.90
2022-07-25T07:46:32.729Z,3.97
2022-07-25T07:48:59.481Z,8.27
2022-07-25T07:51:26.188Z,8.73
2022-07-25T07:54:11.393Z,3.13
2022-07-25T07:56:39.409Z,2.80
2022-07-25T07:59:06.317Z,2.80
2022-07-25T08:01:33.498Z,4.78
2022-07-25T08:04:00.235Z,6.53
2022-07-25T08:06:27.863Z,4.43
2022-07-25T08:08:54.599Z,4.18
2022-07-25T08:11:21.306Z,6.05
2022-07-25T08:13:48.053Z,3.22
2022-07-25T08:16:14.722Z,3.15
2022-07-25T08:18:41.733Z,3.90
2022-07-25T08:21:09.119Z,4.10
2022-07-25T08:23:38.616Z,8.93
2022-07-25T08:26:05.702Z,4.83
2022-07-25T08:28:32.561Z,3.67
2022-07-25T08:30:59.389Z,2.53
2022-07-25T08:33:26.815Z,6.90
2022-07-25T08:35:54.934Z,3.35
2022-07-25T08:38:22.960Z,6.47
2022-07-25T08:40:49.748Z,2.40
2022-07-25T08:43:17.829Z,2.67
2022-07-25T08:45:50.282Z,5.75
2022-07-25T08:48:19.070Z,3.22
2022-07-25T08:50:47.001Z,3.88
2022-07-25T08:53:32.754Z,4.70
2022-07-25T08:56:00.552Z,4.80
2022-07-25T08:58:27.212Z,7.15
2022-07-25T09:00:53.969Z,4.63
2022-07-25T09:03:20.693Z,5.30
2022-07-25T09:05:47.502Z,2.00
2022-07-25T09:08:17.417Z,11.10
2022-07-25T09:10:49.462Z,6.40
2022-07-25T09:13:16.749Z,4.57
2022-07-25T09:15:52.000Z,5.10
2022-07-25T09:18:23.370Z,2.65
2022-07-25T09:20:58.264Z,2.90
2022-07-25T09:23:30.791Z,4.75
2022-07-25T09:26:15.017Z,4.85
2022-07-25T09:28:47.498Z,3.00
2022-07-25T09:31:15.705Z,2.87
2022-07-25T09:33:59.795Z,3.25
2022-07-25T09:36:26.494Z,3.33
2022-07-25T09:38:53.588Z,4.70
2022-07-25T09:41:23.338Z,6.00
2022-07-25T09:43:50.347Z,3.47
2022-07-25T09:46:17.298Z,4.88
2022-07-25T09:48:45.248Z,2.85
2022-07-25T09:51:12.198Z,5.07
2022-07-25T09:53:40.387Z,3.50
2022-07-25T09:56:17.052Z,3.78
2022-07-25T09:58:43.737Z,2.63
2022-07-25T10:01:18.177Z,3.15
2022-07-25T10:03:50.864Z,4.90
2022-07-25T10:06:26.402Z,3.17
2022-07-25T10:08:54.066Z,6.18
2022-07-25T10:11:26.407Z,3.50
2022-07-25T10:13:54.628Z,4.53
2022-07-25T10:16:26.621Z,3.70
2022-07-25T10:18:58.197Z,7.37
2022-07-25T10:21:28.280Z,5.82
2022-07-25T10:24:05.213Z,5.20
2022-07-25T10:26:34.668Z,3.40
2022-07-25T10:29:02.254Z,5.28
2022-07-25T10:31:31.934Z,4.80
2022-07-25T10:34:01.718Z,4.27
2022-07-25T10:36:42.264Z,4.28
2022-07-25T10:39:11.607Z,3.65
2022-07-25T10:41:50.510Z,3.58
2022-07-25T10:44:17.361Z,3.95
2022-07-25T10:46:44.923Z,4.10
2022-07-25T10:49:31.704Z,4.13
2022-07-25T10:52:01.196Z,2.88
2022-07-25T10:54:36.892Z,3.15
2022-07-25T10:57:06.427Z,2.40
2022-07-25T10:59:38.551Z,3.20
2022-07-25T11:02:09.589Z,4.75
2022-07-25T11:04:36.824Z,2.72
2022-07-25T11:07:14.368Z,4.25
2022-07-25T11:09:42.940Z,5.97
2022-07-25T11:12:14.094Z,2.30
2022-07-25T11:14:42.786Z,3.17
2022-07-25T11:17:20.849Z,3.63
2022-07-25T11:20:04.192Z,4.80
2022-07-25T11:22:32.086Z,2.43
2022-07-25T11:25:00.038Z,3.78
2022-07-25T11:27:31.692Z,2.63
2022-07-25T11:30:14.081Z,6.03
2022-07-25T11:32:47.589Z,5.05
2022-07-25T11:35:14.836Z,6.15
2022-07-25T11:37:44.129Z,4.28
2022-07-25T11:40:11.181Z,8.63
2022-07-25T11:42:46.577Z,6.53
2022-07-25T11:45:37.134Z,5.30
2022-07-25T11:48:10.177Z,5.38
2022-07-25T11:50:40.265Z,4.05
2022-07-25T11:53:09.334Z,4.10
2022-07-25T11:55:40.268Z,3.95
2022-07-25T11:58:08.231Z,5.22
2022-07-25T12:00:39.817Z,8.60
2022-07-25T12:03:16.985Z,5.13
2022-07-25T12:05:47.014Z,3.63
2022-07-25T12:08:15.890Z,6.05
2022-07-25T12:10:44.063Z,7.83
2022-07-25T12:13:25.141Z,6.63
2022-07-25T12:15:52.819Z,6.15
2022-07-25T12:18:19.752Z,3.67
2022-07-25T12:20:46.430Z,3.63
2022-07-25T12:23:14.049Z,5.45
2022-07-25T12:25:45.745Z,6.30
2022-07-25T12:28:13.156Z,4.65
2022-07-25T12:30:42.829Z,5.63
2022-07-25T12:33:10.449Z,8.73
2022-07-25T12:35:39.941Z,2.90
2022-07-25T12:38:06.662Z,4.07
2022-07-25T12:40:33.726Z,3.58
2022-07-25T12:43:01.069Z,4.97
2022-07-25T12:45:27.941Z,3.28
2022-07-25T12:47:54.707Z,6.45
2022-07-25T12:50:21.669Z,5.50
2022-07-25T12:52:48.403Z,5.65
2022-07-25T12:55:17.311Z,8.68
2022-07-25T12:57:44.934Z,5.90
2022-07-25T13:00:14.445Z,9.88
2022-07-25T13:02:41.451Z,2.90
2022-07-25T13:05:08.333Z,5.30
2022-07-25T13:07:35.416Z,4.35
2022-07-25T13:10:03.731Z,5.17
2022-07-25T13:12:30.756Z,6.50
2022-07-25T13:14:57.865Z,6.65
2022-07-25T13:17:27.488Z,6.18
2022-07-25T13:19:55.456Z,3.42
2022-07-25T13:22:22.108Z,5.32
2022-07-25T13:24:48.733Z,9.23
2022-07-25T13:27:18.381Z,7.35
2022-07-25T13:29:45.090Z,4.45
2022-07-25T13:32:12.158Z,6.75
2022-07-25T13:34:41.387Z,11.07
2022-07-25T13:37:08.086Z,4.45
2022-07-25T13:39:35.672Z,5.30
2022-07-25T13:42:03.049Z,6.27
2022-07-25T13:44:29.667Z,5.22
2022-07-25T13:46:57.439Z,5.25
2022-07-25T13:49:25.020Z,5.47
2022-07-25T13:51:51.665Z,5.57
2022-07-25T13:54:18.402Z,3.25
2022-07-25T13:56:45.117Z,5.50
2022-07-25T13:59:17.301Z,5.22
2022-07-25T14:01:47.478Z,5.18
2022-07-25T14:04:14.342Z,5.25
2022-07-25T14:06:41.561Z,6.47
2022-07-25T14:09:08.744Z,3.88
2022-07-25T14:11:35.739Z,5.38
2022-07-25T14:14:02.399Z,4.78
2022-07-25T14:16:29.310Z,4.15
2022-07-25T14:18:56.221Z,3.78
2022-07-25T14:21:22.889Z,3.97
2022-07-25T14:23:49.594Z,3.70
2022-07-25T14:26:16.258Z,6.68
2022-07-25T14:28:43.600Z,5.33
2022-07-25T14:31:11.560Z,6.70
2022-07-25T14:33:40.029Z,7.93
2022-07-25T14:36:10.634Z,4.97
2022-07-25T14:38:37.283Z,8.13
2022-07-25T14:41:10.668Z,6.38
2022-07-25T14:43:39.785Z,8.02
2022-07-25T14:46:08.025Z,11.52
2022-07-25T14:48:37.367Z,5.70
2022-07-25T14:51:05.025Z,6.20
2022-07-25T14:53:32.353Z,6.57
2022-07-25T14:55:59.332Z,4.68
2022-07-25T14:58:26.003Z,5.15
2022-07-25T15:00:52.721Z,8.00
2022-07-25T15:03:19.384Z,3.97
2022-07-25T15:05:46.117Z,5.60
2022-07-25T15:08:14.216Z,4.13
2022-07-25T15:10:41.164Z,5.50
2022-07-25T15:13:29.972Z,4.82
2022-07-25T15:15:58.188Z,5.15
2022-07-25T15:18:25.050Z,5.55
2022-07-25T15:20:52.147Z,6.40
2022-07-25T15:23:20.975Z,4.30
2022-07-25T15:26:04.442Z,6.60
2022-07-25T15:28:36.586Z,5.00
2022-07-25T15:31:04.624Z,5.72
2022-07-25T15:33:31.433Z,6.82
2022-07-25T15:35:58.477Z,6.70
2022-07-25T15:38:25.223Z,5.68
2022-07-25T15:40:54.390Z,6.32
2022-07-25T15:43:21.189Z,9.48
2022-07-25T15:45:47.853Z,5.88
2022-07-25T15:48:16.182Z,9.57
2022-07-25T15:50:45.797Z,7.30
2022-07-25T15:53:12.893Z,5.78
2022-07-25T15:55:40.942Z,6.45
2022-07-25T15:58:09.583Z,5.40
2022-07-25T16:00:36.969Z,6.28
2022-07-25T16:03:04.087Z,5.43
2022-07-25T16:05:31.183Z,5.38
2022-07-25T16:08:01.034Z,7.07
2022-07-25T16:10:28.940Z,5.78
2022-07-25T16:12:55.628Z,5.82
2022-07-25T16:15:22.329Z,7.53
2022-07-25T16:17:50.575Z,5.50
2022-07-25T16:20:17.373Z,4.00
2022-07-25T16:22:44.110Z,9.23
2022-07-25T16:25:10.794Z,7.70
2022-07-25T16:27:37.963Z,8.45
2022-07-25T16:30:05.273Z,7.53
2022-07-25T16:32:31.897Z,8.60
2022-07-25T16:34:58.596Z,7.68
2022-07-25T16:37:25.283Z,8.02
2022-07-25T16:39:51.945Z,6.07
2022-07-25T16:42:20.280Z,7.32
2022-07-25T16:44:48.496Z,6.10
2022-07-25T16:47:15.131Z,8.57
2022-07-25T16:49:41.790Z,12.20
2022-07-25T16:52:08.405Z,18.85
2022-07-25T16:54:35.330Z,24.58
2022-07-25T16:57:02.030Z,139.35
2022-07-25T16:59:28.671Z,245.27
2022-07-25T17:01:55.523Z,291.50
2022-07-25T17:04:22.557Z,297.88
2022-07-25T17:06:49.505Z,307.10
2022-07-25T17:09:16.929Z,283.45
2022-07-25T17:11:43.752Z,278.38
2022-07-25T17:14:10.607Z,311.17
2022-07-25T17:16:37.835Z,317.67
2022-07-25T17:19:04.881Z,314.10
2022-07-25T17:21:31.908Z,318.55
2022-07-25T17:24:01.058Z,326.67
2022-07-25T17:26:27.869Z,294.77
2022-07-25T17:28:55.447Z,245.30
2022-07-25T17:31:22.416Z,217.55
2022-07-25T17:33:49.060Z,240.18
2022-07-25T17:36:15.782Z,261.45
2022-07-25T17:38:42.659Z,268.83
2022-07-25T17:41:09.365Z,232.63
2022-07-25T17:43:36.157Z,225.05
2022-07-25T17:46:02.856Z,230.48
2022-07-25T17:48:29.823Z,249.38
2022-07-25T17:50:56.618Z,259.35
2022-07-25T17:53:23.264Z,245.52
2022-07-25T17:55:49.950Z,260.45
2022-07-25T17:58:16.655Z,238.95
2022-07-25T18:00:43.292Z,191.18
2022-07-25T18:03:10.054Z,216.90
2022-07-25T18:05:37.171Z,271.42
2022-07-25T18:08:04.211Z,283.25
2022-07-25T18:10:30.973Z,275.80
2022-07-25T18:13:01.950Z,295.85
2022-07-25T18:15:28.724Z,300.15
2022-07-25T18:17:55.438Z,304.60
2022-07-25T18:20:22.252Z,307.65
2022-07-25T18:22:51.759Z,277.63
2022-07-25T18:25:18.455Z,277.73
2022-07-25T18:27:46.929Z,290.15
2022-07-25T18:30:15.895Z,296.80
2022-07-25T18:32:45.357Z,301.98
2022-07-25T18:35:12.113Z,294.50
2022-07-25T18:37:39.233Z,295.48
2022-07-25T18:40:07.109Z,306.27
2022-07-25T18:42:34.630Z,316.20
2022-07-25T18:45:01.437Z,322.17
2022-07-25T18:47:32.327Z,330.67
2022-07-25T18:50:02.374Z,319.25
2022-07-25T18:52:35.116Z,326.45
2022-07-25T18:55:04.475Z,320.13
2022-07-25T18:57:31.170Z,330.10
2022-07-25T19:00:02.596Z,332.48
2022-07-25T19:02:30.259Z,317.00
2022-07-25T19:04:56.991Z,325.45
2022-07-25T19:07:23.935Z,308.55
2022-07-25T19:09:53.843Z,306.08
2022-07-25T19:12:20.494Z,302.85
2022-07-25T19:14:47.213Z,298.23
2022-07-25T19:17:13.930Z,302.33
2022-07-25T19:19:41.292Z,298.75
2022-07-25T19:22:07.961Z,284.33
2022-07-25T19:24:37.820Z,279.83
2022-07-25T19:27:05.499Z,288.20
2022-07-25T19:29:32.190Z,297.42
2022-07-25T19:31:58.998Z,300.65
2022-07-25T19:34:25.956Z,301.97
2022-07-25T19:36:57.863Z,294.43
2022-07-25T19:39:25.573Z,290.87
2022-07-25T19:41:52.737Z,290.08
2022-07-25T19:44:19.892Z,302.97
2022-07-25T19:46:54.366Z,310.80
2022-07-25T19:49:21.034Z,323.40
2022-07-25T19:51:47.941Z,316.73
2022-07-25T19:54:14.543Z,320.05
2022-07-25T19:56:41.247Z,326.55
2022-07-25T19:59:08.017Z,313.55
2022-07-25T20:01:35.859Z,302.42
2022-07-25T20:04:05.228Z,297.52
2022-07-25T20:06:34.966Z,300.63
2022-07-25T20:09:02.416Z,312.52
2022-07-25T20:11:29.081Z,303.05
2022-07-25T20:13:55.915Z,297.95
2022-07-25T20:16:23.576Z,296.80
2022-07-25T20:18:51.118Z,276.33
2022-07-25T20:21:18.040Z,291.35
2022-07-25T20:23:48.073Z,296.58
2022-07-25T20:26:20.829Z,311.55
2022-07-25T20:28:55.264Z,310.52
2022-07-25T20:31:24.846Z,314.10
2022-07-25T20:33:57.814Z,312.27
2022-07-25T20:36:29.158Z,311.15
2022-07-25T20:39:01.134Z,297.50
2022-07-25T20:41:31.209Z,300.90
2022-07-25T20:44:06.401Z,298.90
2022-07-25T20:46:41.208Z,317.55
2022-07-25T20:49:13.526Z,313.73
2022-07-25T20:51:41.347Z,312.65
2022-07-25T20:54:10.197Z,325.88
2022-07-25T20:56:36.810Z,326.98
2022-07-25T20:59:06.248Z,321.27
2022-07-25T21:01:37.272Z,301.13
2022-07-25T21:04:07.855Z,277.05
2022-07-25T21:06:38.062Z,276.63
2022-07-25T21:09:06.614Z,288.15
2022-07-25T21:11:38.767Z,289.52
2022-07-25T21:14:08.619Z,289.80
2022-07-25T21:16:44.105Z,292.50
2022-07-25T21:19:16.201Z,303.90
2022-07-25T21:21:42.930Z,300.90
2022-07-25T21:24:11.922Z,298.95
2022-07-25T21:26:39.558Z,304.30
2022-07-25T21:29:09.819Z,303.58
2022-07-25T21:31:37.470Z,302.90
2022-07-25T21:34:04.214Z,308.40
2022-07-25T21:36:34.291Z,301.13
2022-07-25T21:39:01.064Z,297.15
2022-07-25T21:41:32.755Z,296.98
2022-07-25T21:43:59.718Z,295.35
2022-07-25T21:46:26.569Z,298.38
2022-07-25T21:49:12.113Z,302.55
2022-07-25T21:51:42.309Z,293.30
2022-07-25T21:54:11.801Z,278.85
2022-07-25T21:56:39.243Z,281.33
2022-07-25T21:59:06.899Z,279.05
2022-07-25T22:01:33.878Z,269.88
2022-07-25T22:04:00.628Z,259.67
2022-07-25T22:06:27.296Z,259.85
2022-07-25T22:08:54.816Z,259.27
2022-07-25T22:11:38.562Z,255.38
2022-07-25T22:14:08.879Z,256.52
2022-07-25T22:16:36.807Z,262.90
2022-07-25T22:19:04.502Z,273.48
2022-07-25T22:21:31.378Z,263.25
2022-07-25T22:23:57.985Z,252.10
2022-07-25T22:26:24.963Z,259.83
2022-07-25T22:28:51.604Z,261.57
2022-07-25T22:31:18.341Z,270.08
2022-07-25T22:33:45.086Z,264.63
2022-07-25T22:36:11.716Z,271.95
2022-07-25T22:38:38.524Z,267.45
2022-07-25T22:41:05.257Z,273.10
2022-07-25T22:43:53.162Z,273.48
2022-07-25T22:46:19.038Z,289.52
2022-07-25T22:48:45.703Z,291.53
2022-07-25T22:51:12.381Z,306.60
2022-07-25T22:53:39.087Z,283.08
2022-07-25T22:56:05.951Z,280.25
2022-07-25T22:58:32.577Z,282.90
2022-07-25T23:00:59.223Z,280.25
2022-07-25T23:03:25.999Z,320.50
2022-07-25T23:05:58.192Z,312.08
2022-07-25T23:08:24.785Z,292.10
2022-07-25T23:10:51.497Z,311.35
2022-07-25T23:13:18.780Z,295.63
2022-07-25T23:15:50.083Z,282.43
2022-07-25T23:18:17.200Z,294.10
2022-07-25T23:20:43.833Z,302.20
2022-07-25T23:23:10.499Z,298.25
2022-07-25T23:25:37.086Z,303.33
2022-07-25T23:28:03.785Z,293.60
2022-07-25T23:30:30.398Z,293.60
2022-07-25T23:32:57.187Z,281.60
2022-07-25T23:35:24.260Z,281.10
2022-07-25T23:37:50.877Z,309.00
2022-07-25T23:40:17.521Z,299.83
2022-07-25T23:42:44.207Z,294.85
2022-07-25T23:45:11.646Z,312.93
2022-07-25T23:47:39.720Z,313.70
2022-07-25T23:50:09.582Z,312.40
2022-07-25T23:52:36.217Z,301.48
2022-07-25T23:55:03.079Z,311.52
2022-07-25T23:57:29.740Z,301.50
2022-07-25T23:59:56.501Z,296.02
